sensor_id;sensor_type;location;lat;lon;timestamp;pressure;altitude;pressure_sealevel;temperature
48894;BMP280;34710;35.798;139.446;2023-07-02T00:00:47;99924.64;;;30.83
48894;BMP280;34710;35.798;139.446;2023-07-02T00:03:13;99923.53;;;30.26
48894;BMP280;34710;35.798;139.446;2023-07-02T00:05:38;99925.99;;;30.31
48894;BMP280;34710;35.798;139.446;2023-07-02T00:08:03;99930.30;;;33.15
48894;BMP280;34710;35.798;139.446;2023-07-02T00:10:27;99926.36;;;33.16
48894;BMP280;34710;35.798;139.446;2023-07-02T00:12:52;99923.11;;;34.09
48894;BMP280;34710;35.798;139.446;2023-07-02T00:15:18;99925.24;;;32.68
48894;BMP280;34710;35.798;139.446;2023-07-02T00:17:43;99928.36;;;31.83
48894;BMP280;34710;35.798;139.446;2023-07-02T00:20:08;99918.50;;;31.62
48894;BMP280;34710;35.798;139.446;2023-07-02T00:22:32;99917.01;;;32.30
48894;BMP280;34710;35.798;139.446;2023-07-02T00:24:58;99916.80;;;31.01
48894;BMP280;34710;35.798;139.446;2023-07-02T00:27:23;99918.36;;;34.07
48894;BMP280;34710;35.798;139.446;2023-07-02T00:29:48;99913.30;;;34.47
48894;BMP280;34710;35.798;139.446;2023-07-02T00:32:13;99910.44;;;33.75
48894;BMP280;34710;35.798;139.446;2023-07-02T00:34:38;99912.34;;;33.39
48894;BMP280;34710;35.798;139.446;2023-07-02T00:37:03;99912.14;;;33.45
48894;BMP280;34710;35.798;139.446;2023-07-02T00:39:29;99909.91;;;34.23
48894;BMP280;34710;35.798;139.446;2023-07-02T00:41:53;99911.59;;;34.29
48894;BMP280;34710;35.798;139.446;2023-07-02T00:44:18;99910.38;;;35.42
48894;BMP280;34710;35.798;139.446;2023-07-02T00:46:44;99914.14;;;35.08
48894;BMP280;34710;35.798;139.446;2023-07-02T00:49:09;99916.52;;;34.71
48894;BMP280;34710;35.798;139.446;2023-07-02T00:51:33;99920.47;;;33.18
48894;BMP280;34710;35.798;139.446;2023-07-02T00:53:59;99916.07;;;32.37
48894;BMP280;34710;35.798;139.446;2023-07-02T00:56:24;99912.12;;;32.53
48894;BMP280;34710;35.798;139.446;2023-07-02T00:58:50;99908.54;;;33.12
48894;BMP280;34710;35.798;139.446;2023-07-02T01:01:15;99903.72;;;34.48
48894;BMP280;34710;35.798;139.446;2023-07-02T01:03:38;99909.92;;;33.22
48894;BMP280;34710;35.798;139.446;2023-07-02T01:06:03;99915.71;;;32.53
48894;BMP280;34710;35.798;139.446;2023-07-02T01:08:28;99912.67;;;32.83
48894;BMP280;34710;35.798;139.446;2023-07-02T01:10:54;99909.22;;;33.27
48894;BMP280;34710;35.798;139.446;2023-07-02T01:13:21;99910.40;;;32.93
48894;BMP280;34710;35.798;139.446;2023-07-02T01:15:44;99910.19;;;31.95
48894;BMP280;34710;35.798;139.446;2023-07-02T01:18:09;99910.05;;;32.75
48894;BMP280;34710;35.798;139.446;2023-07-02T01:20:34;99903.18;;;35.08
48894;BMP280;34710;35.798;139.446;2023-07-02T01:22:59;99903.30;;;36.04
48894;BMP280;34710;35.798;139.446;2023-07-02T01:25:24;99904.13;;;36.76
48894;BMP280;34710;35.798;139.446;2023-07-02T01:27:49;99901.60;;;36.58
48894;BMP280;34710;35.798;139.446;2023-07-02T01:30:14;99893.21;;;36.18
48894;BMP280;34710;35.798;139.446;2023-07-02T01:32:39;99891.67;;;37.23
48894;BMP280;34710;35.798;139.446;2023-07-02T01:35:05;99891.76;;;37.76
48894;BMP280;34710;35.798;139.446;2023-07-02T01:37:29;99889.40;;;36.69
48894;BMP280;34710;35.798;139.446;2023-07-02T01:39:54;99885.52;;;36.21
48894;BMP280;34710;35.798;139.446;2023-07-02T01:42:19;99880.02;;;35.42
48894;BMP280;34710;35.798;139.446;2023-07-02T01:44:45;99880.58;;;36.79
48894;BMP280;34710;35.798;139.446;2023-07-02T01:47:09;99877.99;;;36.50
48894;BMP280;34710;35.798;139.446;2023-07-02T01:49:34;99875.80;;;37.32
48894;BMP280;34710;35.798;139.446;2023-07-02T01:51:59;99867.78;;;36.18
48894;BMP280;34710;35.798;139.446;2023-07-02T01:54:25;99868.65;;;37.68
48894;BMP280;34710;35.798;139.446;2023-07-02T01:56:49;99869.11;;;37.86
48894;BMP280;34710;35.798;139.446;2023-07-02T01:59:15;99866.24;;;37.73
48894;BMP280;34710;35.798;139.446;2023-07-02T02:01:39;99861.29;;;35.90
48894;BMP280;34710;35.798;139.446;2023-07-02T02:04:04;99864.38;;;36.71
48894;BMP280;34710;35.798;139.446;2023-07-02T02:06:29;99868.93;;;36.85
48894;BMP280;34710;35.798;139.446;2023-07-02T02:08:54;99867.43;;;38.55
48894;BMP280;34710;35.798;139.446;2023-07-02T02:11:19;99859.91;;;38.66
48894;BMP280;34710;35.798;139.446;2023-07-02T02:13:44;99861.23;;;36.41
48894;BMP280;34710;35.798;139.446;2023-07-02T02:16:10;99858.22;;;37.97
48894;BMP280;34710;35.798;139.446;2023-07-02T02:18:34;99857.23;;;37.69
48894;BMP280;34710;35.798;139.446;2023-07-02T02:20:59;99851.38;;;38.91
48894;BMP280;34710;35.798;139.446;2023-07-02T02:23:25;99845.61;;;38.58
48894;BMP280;34710;35.798;139.446;2023-07-02T02:25:49;99843.60;;;38.53
48894;BMP280;34710;35.798;139.446;2023-07-02T02:28:15;99833.01;;;38.84
48894;BMP280;34710;35.798;139.446;2023-07-02T02:30:39;99829.14;;;39.43
48894;BMP280;34710;35.798;139.446;2023-07-02T02:33:04;99822.08;;;38.52
48894;BMP280;34710;35.798;139.446;2023-07-02T02:35:30;99820.26;;;39.22
48894;BMP280;34710;35.798;139.446;2023-07-02T02:37:55;99819.03;;;39.64
48894;BMP280;34710;35.798;139.446;2023-07-02T02:40:19;99813.60;;;37.80
48894;BMP280;34710;35.798;139.446;2023-07-02T02:42:45;99809.58;;;38.85
48894;BMP280;34710;35.798;139.446;2023-07-02T02:45:10;99814.07;;;39.31
48894;BMP280;34710;35.798;139.446;2023-07-02T02:47:35;99814.27;;;40.19
48894;BMP280;34710;35.798;139.446;2023-07-02T02:50:00;99811.01;;;40.13
48894;BMP280;34710;35.798;139.446;2023-07-02T02:52:25;99812.55;;;38.21
48894;BMP280;34710;35.798;139.446;2023-07-02T02:54:51;99810.11;;;36.87
48894;BMP280;34710;35.798;139.446;2023-07-02T02:57:15;99805.04;;;35.46
48894;BMP280;34710;35.798;139.446;2023-07-02T02:59:40;99801.92;;;38.72
48894;BMP280;34710;35.798;139.446;2023-07-02T03:02:05;99802.37;;;36.53
48894;BMP280;34710;35.798;139.446;2023-07-02T03:04:30;99803.48;;;37.53
48894;BMP280;34710;35.798;139.446;2023-07-02T03:06:56;99806.68;;;36.88
48894;BMP280;34710;35.798;139.446;2023-07-02T03:09:21;99807.64;;;34.35
48894;BMP280;34710;35.798;139.446;2023-07-02T03:11:46;99806.47;;;36.15
48894;BMP280;34710;35.798;139.446;2023-07-02T03:14:11;99802.52;;;37.07
48894;BMP280;34710;35.798;139.446;2023-07-02T03:16:36;99799.49;;;38.01
48894;BMP280;34710;35.798;139.446;2023-07-02T03:19:01;99800.44;;;37.37
48894;BMP280;34710;35.798;139.446;2023-07-02T03:21:26;99799.33;;;38.53
48894;BMP280;34710;35.798;139.446;2023-07-02T03:23:51;99805.50;;;35.92
48894;BMP280;34710;35.798;139.446;2023-07-02T03:26:16;99803.90;;;35.19
48894;BMP280;34710;35.798;139.446;2023-07-02T03:28:41;99801.78;;;36.85
48894;BMP280;34710;35.798;139.446;2023-07-02T03:31:06;99798.24;;;36.78
48894;BMP280;34710;35.798;139.446;2023-07-02T03:33:31;99799.21;;;38.01
48894;BMP280;34710;35.798;139.446;2023-07-02T03:35:56;99796.26;;;37.46
48894;BMP280;34710;35.798;139.446;2023-07-02T03:38:21;99790.83;;;38.88
48894;BMP280;34710;35.798;139.446;2023-07-02T03:40:46;99786.43;;;39.03
48894;BMP280;34710;35.798;139.446;2023-07-02T03:43:11;99786.10;;;39.78
48894;BMP280;34710;35.798;139.446;2023-07-02T03:45:36;99784.49;;;38.25
48894;BMP280;34710;35.798;139.446;2023-07-02T03:48:01;99775.49;;;38.94
48894;BMP280;34710;35.798;139.446;2023-07-02T03:50:26;99768.69;;;38.74
48894;BMP280;34710;35.798;139.446;2023-07-02T03:52:52;99766.23;;;34.83
48894;BMP280;34710;35.798;139.446;2023-07-02T03:55:16;99768.75;;;36.82
48894;BMP280;34710;35.798;139.446;2023-07-02T03:57:41;99763.30;;;37.30
48894;BMP280;34710;35.798;139.446;2023-07-02T04:00:07;99760.98;;;36.83
48894;BMP280;34710;35.798;139.446;2023-07-02T04:02:31;99758.80;;;36.02
48894;BMP280;34710;35.798;139.446;2023-07-02T04:04:57;99753.63;;;37.64
48894;BMP280;34710;35.798;139.446;2023-07-02T04:07:22;99759.79;;;37.49
48894;BMP280;34710;35.798;139.446;2023-07-02T04:09:47;99757.08;;;35.32
48894;BMP280;34710;35.798;139.446;2023-07-02T04:12:12;99759.95;;;36.00
48894;BMP280;34710;35.798;139.446;2023-07-02T04:14:37;99756.13;;;35.07
48894;BMP280;34710;35.798;139.446;2023-07-02T04:17:02;99754.49;;;36.23
48894;BMP280;34710;35.798;139.446;2023-07-02T04:19:27;99757.79;;;37.04
48894;BMP280;34710;35.798;139.446;2023-07-02T04:21:52;99758.54;;;36.06
48894;BMP280;34710;35.798;139.446;2023-07-02T04:24:17;99757.23;;;35.32
48894;BMP280;34710;35.798;139.446;2023-07-02T04:26:42;99751.42;;;35.75
48894;BMP280;34710;35.798;139.446;2023-07-02T04:29:07;99757.68;;;36.69
48894;BMP280;34710;35.798;139.446;2023-07-02T04:31:32;99753.63;;;36.72
48894;BMP280;34710;35.798;139.446;2023-07-02T04:33:58;99751.85;;;37.25
48894;BMP280;34710;35.798;139.446;2023-07-02T04:36:22;99747.14;;;36.89
48894;BMP280;34710;35.798;139.446;2023-07-02T04:38:47;99748.27;;;35.22
48894;BMP280;34710;35.798;139.446;2023-07-02T04:41:12;99738.00;;;35.84
48894;BMP280;34710;35.798;139.446;2023-07-02T04:43:37;99736.10;;;37.11
48894;BMP280;34710;35.798;139.446;2023-07-02T04:46:02;99741.34;;;36.57
48894;BMP280;34710;35.798;139.446;2023-07-02T04:48:27;99732.20;;;35.87
48894;BMP280;34710;35.798;139.446;2023-07-02T04:50:52;99737.87;;;35.03
48894;BMP280;34710;35.798;139.446;2023-07-02T04:53:17;99743.86;;;34.17
48894;BMP280;34710;35.798;139.446;2023-07-02T04:55:43;99736.80;;;35.42
48894;BMP280;34710;35.798;139.446;2023-07-02T04:58:08;99739.47;;;36.17
48894;BMP280;34710;35.798;139.446;2023-07-02T05:00:33;99732.87;;;36.79
48894;BMP280;34710;35.798;139.446;2023-07-02T05:02:58;99740.13;;;36.32
48894;BMP280;34710;35.798;139.446;2023-07-02T05:05:23;99739.70;;;36.20
48894;BMP280;34710;35.798;139.446;2023-07-02T05:07:48;99733.53;;;35.64
48894;BMP280;34710;35.798;139.446;2023-07-02T05:10:13;99734.03;;;36.47
48894;BMP280;34710;35.798;139.446;2023-07-02T05:12:38;99732.65;;;37.27
48894;BMP280;34710;35.798;139.446;2023-07-02T05:15:04;99734.01;;;34.12
48894;BMP280;34710;35.798;139.446;2023-07-02T05:17:29;99727.78;;;35.83
48894;BMP280;34710;35.798;139.446;2023-07-02T05:19:54;99726.99;;;33.83
48894;BMP280;34710;35.798;139.446;2023-07-02T05:22:19;99731.54;;;33.54
48894;BMP280;34710;35.798;139.446;2023-07-02T05:24:44;99738.38;;;34.29
48894;BMP280;34710;35.798;139.446;2023-07-02T05:27:10;99737.41;;;34.82
48894;BMP280;34710;35.798;139.446;2023-07-02T05:29:35;99738.61;;;34.21
48894;BMP280;34710;35.798;139.446;2023-07-02T05:32:00;99737.66;;;33.42
48894;BMP280;34710;35.798;139.446;2023-07-02T05:34:25;99735.82;;;33.74
48894;BMP280;34710;35.798;139.446;2023-07-02T05:36:51;99737.94;;;34.31
48894;BMP280;34710;35.798;139.446;2023-07-02T05:39:15;99744.43;;;34.73
48894;BMP280;34710;35.798;139.446;2023-07-02T05:41:41;99744.76;;;34.87
48894;BMP280;34710;35.798;139.446;2023-07-02T05:44:06;99749.42;;;33.34
48894;BMP280;34710;35.798;139.446;2023-07-02T05:46:31;99750.84;;;33.21
48894;BMP280;34710;35.798;139.446;2023-07-02T05:48:57;99737.40;;;33.37
48894;BMP280;34710;35.798;139.446;2023-07-02T05:51:22;99726.38;;;34.66
48894;BMP280;34710;35.798;139.446;2023-07-02T05:53:47;99726.83;;;34.19
48894;BMP280;34710;35.798;139.446;2023-07-02T05:56:13;99727.67;;;35.66
48894;BMP280;34710;35.798;139.446;2023-07-02T05:58:38;99723.13;;;34.63
48894;BMP280;34710;35.798;139.446;2023-07-02T06:01:03;99718.89;;;33.00
48894;BMP280;34710;35.798;139.446;2023-07-02T06:03:28;99706.82;;;33.32
48894;BMP280;34710;35.798;139.446;2023-07-02T06:05:53;99713.46;;;34.02
48894;BMP280;34710;35.798;139.446;2023-07-02T06:08:18;99715.44;;;33.20
48894;BMP280;34710;35.798;139.446;2023-07-02T06:10:45;99717.33;;;34.48
48894;BMP280;34710;35.798;139.446;2023-07-02T06:13:08;99709.17;;;33.75
48894;BMP280;34710;35.798;139.446;2023-07-02T06:15:33;99719.30;;;33.17
48894;BMP280;34710;35.798;139.446;2023-07-02T06:17:58;99721.62;;;33.44
48894;BMP280;34710;35.798;139.446;2023-07-02T06:20:23;99710.59;;;33.26
48894;BMP280;34710;35.798;139.446;2023-07-02T06:22:49;99712.53;;;33.16
48894;BMP280;34710;35.798;139.446;2023-07-02T06:25:14;99722.96;;;33.43
48894;BMP280;34710;35.798;139.446;2023-07-02T06:27:38;99729.00;;;33.22
48894;BMP280;34710;35.798;139.446;2023-07-02T06:30:05;99738.15;;;32.58
48894;BMP280;34710;35.798;139.446;2023-07-02T06:32:29;99736.78;;;33.05
48894;BMP280;34710;35.798;139.446;2023-07-02T06:34:53;99737.50;;;31.58
48894;BMP280;34710;35.798;139.446;2023-07-02T06:37:19;99729.32;;;30.88
48894;BMP280;34710;35.798;139.446;2023-07-02T06:39:43;99729.22;;;31.49
48894;BMP280;34710;35.798;139.446;2023-07-02T06:42:09;99728.67;;;31.69
48894;BMP280;34710;35.798;139.446;2023-07-02T06:44:34;99732.17;;;31.51
48894;BMP280;34710;35.798;139.446;2023-07-02T06:46:59;99735.80;;;31.37
48894;BMP280;34710;35.798;139.446;2023-07-02T06:49:24;99747.05;;;30.70
48894;BMP280;34710;35.798;139.446;2023-07-02T06:51:50;99741.14;;;30.22
48894;BMP280;34710;35.798;139.446;2023-07-02T06:54:15;99744.04;;;30.10
48894;BMP280;34710;35.798;139.446;2023-07-02T06:56:40;99747.73;;;29.70
48894;BMP280;34710;35.798;139.446;2023-07-02T06:59:05;99743.44;;;30.01
48894;BMP280;34710;35.798;139.446;2023-07-02T07:01:30;99742.17;;;30.05
48894;BMP280;34710;35.798;139.446;2023-07-02T07:03:55;99741.73;;;29.14
48894;BMP280;34710;35.798;139.446;2023-07-02T07:06:20;99739.32;;;30.31
48894;BMP280;34710;35.798;139.446;2023-07-02T07:08:45;99736.35;;;29.64
48894;BMP280;34710;35.798;139.446;2023-07-02T07:11:10;99736.93;;;30.37
48894;BMP280;34710;35.798;139.446;2023-07-02T07:13:35;99739.54;;;30.66
48894;BMP280;34710;35.798;139.446;2023-07-02T07:16:00;99737.13;;;30.54
48894;BMP280;34710;35.798;139.446;2023-07-02T07:18:25;99740.47;;;29.84
48894;BMP280;34710;35.798;139.446;2023-07-02T07:20:50;99739.56;;;29.84
48894;BMP280;34710;35.798;139.446;2023-07-02T07:23:16;99740.04;;;30.92
48894;BMP280;34710;35.798;139.446;2023-07-02T07:25:40;99740.56;;;29.27
48894;BMP280;34710;35.798;139.446;2023-07-02T07:28:05;99737.96;;;28.62
48894;BMP280;34710;35.798;139.446;2023-07-02T07:30:30;99741.76;;;29.66
48894;BMP280;34710;35.798;139.446;2023-07-02T07:32:57;99739.04;;;28.87
48894;BMP280;34710;35.798;139.446;2023-07-02T07:35:21;99735.31;;;29.45
48894;BMP280;34710;35.798;139.446;2023-07-02T07:37:46;99730.13;;;29.05
48894;BMP280;34710;35.798;139.446;2023-07-02T07:40:12;99733.25;;;29.24
48894;BMP280;34710;35.798;139.446;2023-07-02T07:42:36;99743.89;;;27.98
48894;BMP280;34710;35.798;139.446;2023-07-02T07:45:01;99753.35;;;29.57
48894;BMP280;34710;35.798;139.446;2023-07-02T07:47:26;99758.09;;;28.47
48894;BMP280;34710;35.798;139.446;2023-07-02T07:49:51;99759.87;;;29.07
48894;BMP280;34710;35.798;139.446;2023-07-02T07:52:16;99760.45;;;28.96
48894;BMP280;34710;35.798;139.446;2023-07-02T07:54:41;99754.74;;;29.77
48894;BMP280;34710;35.798;139.446;2023-07-02T07:57:08;99760.83;;;28.77
48894;BMP280;34710;35.798;139.446;2023-07-02T07:59:31;99765.72;;;29.13
48894;BMP280;34710;35.798;139.446;2023-07-02T08:01:57;99765.97;;;29.63
48894;BMP280;34710;35.798;139.446;2023-07-02T08:04:21;99763.26;;;29.65
48894;BMP280;34710;35.798;139.446;2023-07-02T08:06:47;99764.01;;;28.70
48894;BMP280;34710;35.798;139.446;2023-07-02T08:09:11;99765.46;;;28.51
48894;BMP280;34710;35.798;139.446;2023-07-02T08:11:37;99770.03;;;28.95
48894;BMP280;34710;35.798;139.446;2023-07-02T08:14:03;99776.25;;;28.90
48894;BMP280;34710;35.798;139.446;2023-07-02T08:16:26;99776.18;;;28.80
48894;BMP280;34710;35.798;139.446;2023-07-02T08:18:52;99784.27;;;29.46
48894;BMP280;34710;35.798;139.446;2023-07-02T08:21:17;99783.17;;;28.95
48894;BMP280;34710;35.798;139.446;2023-07-02T08:23:43;99780.18;;;28.37
48894;BMP280;34710;35.798;139.446;2023-07-02T08:26:07;99796.46;;;28.03
48894;BMP280;34710;35.798;139.446;2023-07-02T08:28:32;99795.49;;;27.22
48894;BMP280;34710;35.798;139.446;2023-07-02T08:30:57;99797.59;;;28.01
48894;BMP280;34710;35.798;139.446;2023-07-02T08:33:22;99794.93;;;28.11
48894;BMP280;34710;35.798;139.446;2023-07-02T08:35:47;99802.73;;;28.64
48894;BMP280;34710;35.798;139.446;2023-07-02T08:38:13;99798.12;;;28.66
48894;BMP280;34710;35.798;139.446;2023-07-02T08:40:37;99810.90;;;27.37
48894;BMP280;34710;35.798;139.446;2023-07-02T08:43:03;99810.91;;;26.32
48894;BMP280;34710;35.798;139.446;2023-07-02T08:45:28;99811.20;;;26.63
48894;BMP280;34710;35.798;139.446;2023-07-02T08:47:53;99810.86;;;25.54
48894;BMP280;34710;35.798;139.446;2023-07-02T08:50:18;99812.30;;;25.97
48894;BMP280;34710;35.798;139.446;2023-07-02T08:52:42;99806.90;;;26.07
48894;BMP280;34710;35.798;139.446;2023-07-02T08:55:08;99813.99;;;26.16
48894;BMP280;34710;35.798;139.446;2023-07-02T08:57:32;99813.07;;;26.32
48894;BMP280;34710;35.798;139.446;2023-07-02T08:59:58;99812.97;;;25.92
48894;BMP280;34710;35.798;139.446;2023-07-02T09:02:31;99807.95;;;25.66
48894;BMP280;34710;35.798;139.446;2023-07-02T09:04:58;99807.34;;;25.74
48894;BMP280;34710;35.798;139.446;2023-07-02T09:07:13;99813.98;;;25.58
48894;BMP280;34710;35.798;139.446;2023-07-02T09:09:45;99816.31;;;25.41
48894;BMP280;34710;35.798;139.446;2023-07-02T09:12:04;99812.83;;;25.60
48894;BMP280;34710;35.798;139.446;2023-07-02T09:14:29;99817.47;;;25.20
48894;BMP280;34710;35.798;139.446;2023-07-02T09:17:04;99818.57;;;25.03
48894;BMP280;34710;35.798;139.446;2023-07-02T09:19:18;99819.44;;;26.13
48894;BMP280;34710;35.798;139.446;2023-07-02T09:21:45;99824.72;;;26.17
48894;BMP280;34710;35.798;139.446;2023-07-02T09:24:15;99822.74;;;25.65
48894;BMP280;34710;35.798;139.446;2023-07-02T09:26:34;99827.83;;;25.16
48894;BMP280;34710;35.798;139.446;2023-07-02T09:29:02;99823.67;;;26.49
48894;BMP280;34710;35.798;139.446;2023-07-02T09:31:23;99823.70;;;26.59
48894;BMP280;34710;35.798;139.446;2023-07-02T09:33:50;99826.12;;;25.90
48894;BMP280;34710;35.798;139.446;2023-07-02T09:36:14;99824.51;;;25.53
48894;BMP280;34710;35.798;139.446;2023-07-02T09:38:39;99827.47;;;26.55
48894;BMP280;34710;35.798;139.446;2023-07-02T09:41:04;99821.58;;;26.18
48894;BMP280;34710;35.798;139.446;2023-07-02T09:43:29;99832.46;;;25.65
48894;BMP280;34710;35.798;139.446;2023-07-02T09:45:56;99832.70;;;25.02
48894;BMP280;34710;35.798;139.446;2023-07-02T09:48:22;99828.20;;;25.51
48894;BMP280;34710;35.798;139.446;2023-07-02T09:50:46;99825.11;;;25.42
48894;BMP280;34710;35.798;139.446;2023-07-02T09:53:09;99832.32;;;25.31
48894;BMP280;34710;35.798;139.446;2023-07-02T09:55:34;99835.71;;;25.63
48894;BMP280;34710;35.798;139.446;2023-07-02T09:57:59;99838.09;;;26.20
48894;BMP280;34710;35.798;139.446;2023-07-02T10:00:24;99841.38;;;26.57
48894;BMP280;34710;35.798;139.446;2023-07-02T10:02:50;99837.77;;;26.70
48894;BMP280;34710;35.798;139.446;2023-07-02T10:05:25;99843.74;;;26.57
48894;BMP280;34710;35.798;139.446;2023-07-02T10:07:39;99843.41;;;25.16
48894;BMP280;34710;35.798;139.446;2023-07-02T10:10:05;99849.69;;;26.68
48894;BMP280;34710;35.798;139.446;2023-07-02T10:12:30;99847.78;;;26.29
48894;BMP280;34710;35.798;139.446;2023-07-02T10:14:56;99846.00;;;25.52
48894;BMP280;34710;35.798;139.446;2023-07-02T10:17:27;99845.91;;;26.16
48894;BMP280;34710;35.798;139.446;2023-07-02T10:19:51;99850.21;;;25.14
48894;BMP280;34710;35.798;139.446;2023-07-02T10:22:09;99856.53;;;24.21
48894;BMP280;34710;35.798;139.446;2023-07-02T10:24:35;99854.93;;;24.77
48894;BMP280;34710;35.798;139.446;2023-07-02T10:27:01;99852.07;;;25.22
48894;BMP280;34710;35.798;139.446;2023-07-02T10:29:26;99850.50;;;25.34
48894;BMP280;34710;35.798;139.446;2023-07-02T10:31:50;99854.90;;;25.71
48894;BMP280;34710;35.798;139.446;2023-07-02T10:34:15;99861.20;;;25.60
48894;BMP280;34710;35.798;139.446;2023-07-02T10:36:40;99864.10;;;25.19
48894;BMP280;34710;35.798;139.446;2023-07-02T10:39:05;99867.24;;;26.18
48894;BMP280;34710;35.798;139.446;2023-07-02T10:41:30;99867.05;;;26.44
48894;BMP280;34710;35.798;139.446;2023-07-02T10:46:20;99864.46;;;27.11
48894;BMP280;34710;35.798;139.446;2023-07-02T10:48:51;99867.48;;;25.91
48894;BMP280;34710;35.798;139.446;2023-07-02T10:51:13;99873.12;;;25.59
48894;BMP280;34710;35.798;139.446;2023-07-02T10:53:35;99872.22;;;26.30
48894;BMP280;34710;35.798;139.446;2023-07-02T10:56:00;99874.56;;;26.48
48894;BMP280;34710;35.798;139.446;2023-07-02T10:58:26;99875.66;;;25.85
48894;BMP280;34710;35.798;139.446;2023-07-02T11:00:51;99881.84;;;26.46
48894;BMP280;34710;35.798;139.446;2023-07-02T11:03:20;99884.14;;;25.31
48894;BMP280;34710;35.798;139.446;2023-07-02T11:05:41;99886.88;;;24.84
48894;BMP280;34710;35.798;139.446;2023-07-02T11:08:10;99882.05;;;25.71
48894;BMP280;34710;35.798;139.446;2023-07-02T11:10:31;99884.86;;;25.85
48894;BMP280;34710;35.798;139.446;2023-07-02T11:12:56;99889.86;;;24.60
48894;BMP280;34710;35.798;139.446;2023-07-02T11:15:21;99901.51;;;24.42
48894;BMP280;34710;35.798;139.446;2023-07-02T11:17:46;99900.39;;;24.90
48894;BMP280;34710;35.798;139.446;2023-07-02T11:20:13;99903.12;;;25.21
48894;BMP280;34710;35.798;139.446;2023-07-02T11:22:38;99906.38;;;24.92
48894;BMP280;34710;35.798;139.446;2023-07-02T11:25:11;99910.44;;;24.51
48894;BMP280;34710;35.798;139.446;2023-07-02T11:27:26;99905.58;;;25.23
48894;BMP280;34710;35.798;139.446;2023-07-02T11:29:59;99909.32;;;25.03
48894;BMP280;34710;35.798;139.446;2023-07-02T11:32:17;99909.01;;;25.30
48894;BMP280;34710;35.798;139.446;2023-07-02T11:34:52;99916.05;;;25.16
48894;BMP280;34710;35.798;139.446;2023-07-02T11:37:08;99912.56;;;24.76
48894;BMP280;34710;35.798;139.446;2023-07-02T11:39:32;99916.35;;;24.63
48894;BMP280;34710;35.798;139.446;2023-07-02T11:41:57;99923.18;;;25.23
48894;BMP280;34710;35.798;139.446;2023-07-02T11:44:22;99930.15;;;25.26
48894;BMP280;34710;35.798;139.446;2023-07-02T11:46:47;99938.29;;;23.89
48894;BMP280;34710;35.798;139.446;2023-07-02T11:49:13;99933.95;;;25.32
48894;BMP280;34710;35.798;139.446;2023-07-02T11:51:39;99936.11;;;25.83
48894;BMP280;34710;35.798;139.446;2023-07-02T11:54:03;99940.33;;;25.97
48894;BMP280;34710;35.798;139.446;2023-07-02T11:56:28;99942.25;;;26.18
48894;BMP280;34710;35.798;139.446;2023-07-02T11:58:53;99945.51;;;24.89
48894;BMP280;34710;35.798;139.446;2023-07-02T12:01:18;99947.22;;;25.70
48894;BMP280;34710;35.798;139.446;2023-07-02T12:03:44;99946.86;;;25.84
48894;BMP280;34710;35.798;139.446;2023-07-02T12:06:08;99945.40;;;25.95
48894;BMP280;34710;35.798;139.446;2023-07-02T12:08:33;99945.64;;;25.61
48894;BMP280;34710;35.798;139.446;2023-07-02T12:10:58;99950.31;;;26.41
48894;BMP280;34710;35.798;139.446;2023-07-02T12:13:23;99949.12;;;27.80
48894;BMP280;34710;35.798;139.446;2023-07-02T12:15:48;99954.58;;;25.79
48894;BMP280;34710;35.798;139.446;2023-07-02T12:18:13;99953.67;;;26.04
48894;BMP280;34710;35.798;139.446;2023-07-02T12:20:40;99952.67;;;26.48
48894;BMP280;34710;35.798;139.446;2023-07-02T12:23:04;99955.38;;;26.37
48894;BMP280;34710;35.798;139.446;2023-07-02T12:25:29;99956.84;;;27.23
48894;BMP280;34710;35.798;139.446;2023-07-02T12:27:53;99955.04;;;27.35
48894;BMP280;34710;35.798;139.446;2023-07-02T12:30:19;99954.63;;;26.67
48894;BMP280;34710;35.798;139.446;2023-07-02T12:32:44;99957.86;;;26.98
48894;BMP280;34710;35.798;139.446;2023-07-02T12:35:09;99954.55;;;26.59
48894;BMP280;34710;35.798;139.446;2023-07-02T12:37:34;99953.68;;;25.99
48894;BMP280;34710;35.798;139.446;2023-07-02T12:39:59;99953.58;;;26.61
48894;BMP280;34710;35.798;139.446;2023-07-02T12:42:24;99952.35;;;26.34
48894;BMP280;34710;35.798;139.446;2023-07-02T12:44:50;99950.71;;;25.68
48894;BMP280;34710;35.798;139.446;2023-07-02T12:47:14;99947.70;;;25.54
48894;BMP280;34710;35.798;139.446;2023-07-02T12:49:40;99948.47;;;26.63
48894;BMP280;34710;35.798;139.446;2023-07-02T12:52:05;99953.54;;;26.78
48894;BMP280;34710;35.798;139.446;2023-07-02T12:54:30;99954.92;;;26.71
48894;BMP280;34710;35.798;139.446;2023-07-02T12:56:55;99957.00;;;26.79
48894;BMP280;34710;35.798;139.446;2023-07-02T12:59:21;99960.64;;;27.07
48894;BMP280;34710;35.798;139.446;2023-07-02T13:01:46;99964.24;;;26.72
48894;BMP280;34710;35.798;139.446;2023-07-02T13:04:11;99968.81;;;26.62
48894;BMP280;34710;35.798;139.446;2023-07-02T13:06:36;99971.69;;;27.17
48894;BMP280;34710;35.798;139.446;2023-07-02T13:09:01;99975.40;;;26.61
48894;BMP280;34710;35.798;139.446;2023-07-02T13:11:26;99972.24;;;26.46
48894;BMP280;34710;35.798;139.446;2023-07-02T13:13:51;99972.47;;;26.36
48894;BMP280;34710;35.798;139.446;2023-07-02T13:16:17;99969.63;;;25.72
48894;BMP280;34710;35.798;139.446;2023-07-02T13:18:41;99967.75;;;26.37
48894;BMP280;34710;35.798;139.446;2023-07-02T13:21:06;99969.84;;;25.49
48894;BMP280;34710;35.798;139.446;2023-07-02T13:23:31;99970.04;;;26.10
48894;BMP280;34710;35.798;139.446;2023-07-02T13:25:57;99971.56;;;25.84
48894;BMP280;34710;35.798;139.446;2023-07-02T13:28:22;99968.73;;;26.44
48894;BMP280;34710;35.798;139.446;2023-07-02T13:30:46;99972.22;;;26.98
48894;BMP280;34710;35.798;139.446;2023-07-02T13:33:11;99977.46;;;27.28